createdAt,value
2018-10-03T00:02:28.446Z,85.24
2018-10-03T00:04:57.957Z,85.27
2018-10-03T00:07:27.539Z,85.17
2018-10-03T00:09:57.056Z,85.35
2018-10-03T00:12:26.522Z,85.41
2018-10-03T00:14:56.026Z,85.14
2018-10-03T00:17:25.247Z,85.41
2018-10-03T00:19:54.546Z,85.14
2018-10-03T00:22:24.233Z,85.36
2018-10-03T00:24:53.538Z,84.93
2018-10-03T00:27:22.846Z,85.13
2018-10-03T00:29:52.165Z,85.16
2018-10-03T00:32:21.437Z,85.64
2018-10-03T00:34:51.027Z,85.26
2018-10-03T00:37:20.308Z,85.14
2018-10-03T00:39:49.606Z,85.01
2018-10-03T00:42:19.367Z,84.74
2018-10-03T00:44:48.664Z,85.07
2018-10-03T00:47:18.002Z,84.51
2018-10-03T00:49:47.282Z,84.92
2018-10-03T00:52:17.167Z,84.74
2018-10-03T00:54:46.446Z,84.45
2018-10-03T00:57:16.034Z,83.96
2018-10-03T00:59:45.317Z,83.77
2018-10-03T01:02:14.966Z,83.71
2018-10-03T01:04:44.070Z,83.56
2018-10-03T01:07:13.474Z,83.49
2018-10-03T01:09:43.037Z,83.36
2018-10-03T01:12:13.477Z,83.45
2018-10-03T01:14:43.091Z,83.42
2018-10-03T01:17:13.468Z,83.48
2018-10-03T01:19:43.047Z,83.48
2018-10-03T01:22:13.437Z,83.17
2018-10-03T01:24:43.198Z,83.19
2018-10-03T01:27:13.342Z,83.25
2018-10-03T01:29:42.616Z,83.51
2018-10-03T01:32:11.634Z,83.04
2018-10-03T01:34:40.898Z,83.31
2018-10-03T01:37:10.274Z,83.25
2018-10-03T01:39:39.578Z,83.38
2018-10-03T01:42:09.171Z,83.18
2018-10-03T01:44:38.239Z,83.17
2018-10-03T01:47:07.544Z,83.33
2018-10-03T01:49:37.178Z,83.58
2018-10-03T01:52:06.202Z,83.42
2018-10-03T01:54:35.691Z,83.50
2018-10-03T01:57:05.294Z,83.54
2018-10-03T01:59:34.581Z,83.32
2018-10-03T02:02:03.951Z,83.48
2018-10-03T02:04:33.238Z,83.37
2018-10-03T02:07:02.294Z,83.60
2018-10-03T02:09:31.647Z,83.84
2018-10-03T02:12:01.261Z,83.67
2018-10-03T02:14:30.538Z,83.53
2018-10-03T02:16:59.846Z,84.26
2018-10-03T02:19:29.598Z,84.12
2018-10-03T02:21:58.906Z,84.14
2018-10-03T02:24:27.914Z,84.36
2018-10-03T02:26:57.342Z,84.34
2018-10-03T02:29:26.398Z,84.44
2018-10-03T02:31:56.696Z,84.64
2018-10-03T02:34:26.609Z,84.77
2018-10-03T02:36:56.399Z,84.85
2018-10-03T02:39:25.682Z,85.09
2018-10-03T02:41:55.274Z,85.10
2018-10-03T02:44:24.558Z,84.83
2018-10-03T02:46:53.862Z,85.25
2018-10-03T02:49:23.683Z,85.08
2018-10-03T02:51:52.982Z,85.31
2018-10-03T02:54:22.336Z,85.57
2018-10-03T02:56:51.683Z,85.30
2018-10-03T02:59:21.549Z,85.24
2018-10-03T03:01:50.892Z,85.22
2018-10-03T03:04:20.682Z,85.25
2018-10-03T03:06:49.986Z,85.09
2018-10-03T03:09:19.550Z,84.33
2018-10-03T03:11:48.842Z,84.74
2018-10-03T03:14:18.412Z,84.49
2018-10-03T03:16:47.383Z,84.19
2018-10-03T03:19:16.886Z,84.12
2018-10-03T03:21:46.196Z,83.64
2018-10-03T03:24:15.469Z,83.90
2018-10-03T03:26:44.771Z,83.88
2018-10-03T03:29:14.341Z,83.32
2018-10-03T03:31:43.627Z,83.24
2018-10-03T03:34:13.793Z,83.64
2018-10-03T03:36:43.085Z,82.94
2018-10-03T03:39:13.956Z,83.39
2018-10-03T03:41:43.542Z,83.26
2018-10-03T03:44:13.886Z,83.31
2018-10-03T03:46:43.498Z,83.10
2018-10-03T03:49:13.870Z,83.65
2018-10-03T03:51:43.153Z,83.26
2018-10-03T03:54:13.950Z,83.55
2018-10-03T03:56:43.527Z,83.93
2018-10-03T03:59:13.899Z,84.16
2018-10-03T04:01:43.506Z,83.60
2018-10-03T04:04:13.871Z,83.80
2018-10-03T04:06:43.151Z,83.42
2018-10-03T04:09:13.921Z,83.09
2018-10-03T04:11:43.490Z,82.77
2018-10-03T04:14:13.864Z,82.50
2018-10-03T04:16:43.427Z,81.49
2018-10-03T04:19:13.887Z,81.64
2018-10-03T04:21:43.170Z,81.68
2018-10-03T04:24:14.058Z,81.66
2018-10-03T04:26:43.293Z,81.81
2018-10-03T04:29:13.919Z,81.87
2018-10-03T04:31:43.494Z,81.67
2018-10-03T04:34:13.998Z,81.75
2018-10-03T04:36:43.566Z,81.50
2018-10-03T04:39:14.062Z,81.61
2018-10-03T04:41:43.653Z,81.96
2018-10-03T04:44:14.014Z,82.51
2018-10-03T04:46:43.619Z,81.85
2018-10-03T04:49:13.993Z,82.26
2018-10-03T04:51:43.566Z,82.04
2018-10-03T04:54:14.091Z,82.32
2018-10-03T04:56:43.126Z,82.33
2018-10-03T04:59:14.141Z,82.78
2018-10-03T05:01:43.659Z,82.47
2018-10-03T05:04:14.008Z,82.69
2018-10-03T05:06:43.293Z,82.30
2018-10-03T05:09:13.791Z,82.32
2018-10-03T05:11:43.103Z,82.60
2018-10-03T05:14:14.013Z,82.16
2018-10-03T05:16:43.285Z,82.97
2018-10-03T05:19:14.023Z,82.69
2018-10-03T05:21:43.308Z,82.56
2018-10-03T05:24:14.205Z,82.32
2018-10-03T05:26:43.782Z,82.32
2018-10-03T05:29:13.718Z,82.77
2018-10-03T05:31:42.997Z,82.79
2018-10-03T05:34:12.050Z,83.14
2018-10-03T05:36:41.855Z,82.46
2018-10-03T05:39:10.889Z,82.92
2018-10-03T05:41:40.664Z,83.15
2018-10-03T05:44:09.733Z,83.09
2018-10-03T05:46:38.682Z,82.71
2018-10-03T06:28:07.000Z,78.98
2018-10-03T06:30:36.490Z,77.91
2018-10-03T06:33:05.691Z,77.08
2018-10-03T06:35:35.263Z,76.61
2018-10-03T06:41:12.458Z,76.81
2018-10-03T06:43:42.118Z,76.61
2018-10-03T06:46:12.580Z,75.61
2018-10-03T06:48:43.894Z,76.19
2018-10-03T06:51:14.491Z,76.54
2018-10-03T06:53:44.098Z,76.56
2018-10-03T06:56:14.263Z,75.96
2018-10-03T06:58:43.582Z,75.57
2018-10-03T07:01:16.983Z,75.85
2018-10-03T07:03:47.017Z,75.03
2018-10-03T07:06:16.336Z,75.58
2018-10-03T07:08:45.682Z,75.93
2018-10-03T07:11:15.311Z,75.10
2018-10-03T07:13:44.313Z,75.41
2018-10-03T07:16:14.344Z,74.40
2018-10-03T07:18:43.662Z,75.11
2018-10-03T07:21:14.459Z,74.48
2018-10-03T07:23:43.839Z,73.54
2018-10-03T07:26:14.113Z,73.25
2018-10-03T07:28:43.561Z,73.22
2018-10-03T07:31:19.802Z,72.94
2018-10-03T07:33:49.194Z,72.57
2018-10-03T07:36:18.486Z,71.97
2018-10-03T07:38:48.102Z,72.14
2018-10-03T07:41:17.413Z,71.08
2018-10-03T07:43:46.719Z,70.06
2018-10-03T07:46:16.103Z,70.74
2018-10-03T07:48:45.394Z,70.51
2018-10-03T07:51:14.703Z,70.80
2018-10-03T07:53:44.158Z,70.40
2018-10-03T07:56:14.517Z,70.75
2018-10-03T07:58:44.109Z,71.60
2018-10-03T08:01:14.483Z,71.64
2018-10-03T08:03:44.058Z,70.81
2018-10-03T08:06:14.566Z,70.91
2018-10-03T08:08:44.153Z,70.56
2018-10-03T08:11:14.519Z,70.04
2018-10-03T08:13:44.143Z,69.92
2018-10-03T08:16:14.565Z,69.65
2018-10-03T08:18:44.138Z,69.97
2018-10-03T08:21:14.603Z,68.97
2018-10-03T08:23:44.228Z,69.27
2018-10-03T08:26:14.532Z,68.54
2018-10-03T08:28:44.155Z,68.14
2018-10-03T08:31:14.525Z,67.62
2018-10-03T08:33:43.783Z,67.34
2018-10-03T08:36:14.399Z,68.16
2018-10-03T08:38:43.704Z,68.47
2018-10-03T08:41:14.573Z,67.79
2018-10-03T08:43:44.187Z,67.75
2018-10-03T08:46:14.527Z,67.77
2018-10-03T08:48:43.311Z,67.91
2018-10-03T08:51:12.616Z,67.25
2018-10-03T08:53:42.223Z,67.57
2018-10-03T08:56:11.237Z,67.75
2018-10-03T08:58:40.775Z,68.78
2018-10-03T09:01:10.377Z,69.12
2018-10-03T09:03:39.662Z,70.22
2018-10-03T09:06:09.246Z,70.01
2018-10-03T09:08:38.517Z,70.98
2018-10-03T09:11:07.593Z,70.54
2018-10-03T09:13:37.250Z,71.34
2018-10-03T09:22:05.489Z,70.93
2018-10-03T09:24:34.778Z,71.04
2018-10-03T09:27:04.420Z,71.33
2018-10-03T09:29:33.704Z,71.49
2018-10-03T09:32:02.726Z,70.41
2018-10-03T09:34:32.602Z,71.00
2018-10-03T09:37:02.793Z,70.53
2018-10-03T09:39:32.378Z,70.57
2018-10-03T09:42:03.442Z,69.63
2018-10-03T09:44:32.518Z,70.64
2018-10-03T09:47:02.261Z,68.53
2018-10-03T09:49:31.842Z,67.79
2018-10-03T09:52:01.142Z,67.11
2018-10-03T09:54:30.685Z,66.36
2018-10-03T09:57:01.106Z,65.71
2018-10-03T09:59:30.483Z,64.68
2018-10-03T10:01:59.749Z,64.59
2018-10-03T10:04:29.032Z,63.79
2018-10-03T10:06:58.671Z,64.89
2018-10-03T10:09:34.910Z,64.37
2018-10-03T10:12:09.786Z,64.02
2018-10-03T10:14:50.916Z,63.19
2018-10-03T10:17:22.515Z,61.53
2018-10-03T10:19:53.233Z,61.04
2018-10-03T10:22:28.654Z,61.36
2018-10-03T10:24:57.925Z,61.49
2018-10-03T10:27:47.275Z,62.97
2018-10-03T10:30:16.933Z,63.44
2018-10-03T10:32:51.287Z,62.42
2018-10-03T10:35:27.949Z,62.99
2018-10-03T10:37:57.471Z,64.21
2018-10-03T10:40:27.127Z,65.47
2018-10-03T10:42:56.261Z,66.65
2018-10-03T10:45:25.501Z,68.55
2018-10-03T10:47:54.801Z,69.48
2018-10-03T10:50:24.194Z,69.04
2018-10-03T10:52:53.610Z,68.09
2018-10-03T10:55:22.891Z,67.12
2018-10-03T10:57:52.189Z,66.55
2018-10-03T11:00:21.770Z,66.08
2018-10-03T11:02:51.063Z,64.68
2018-10-03T11:05:21.655Z,63.65
2018-10-03T11:07:51.528Z,61.16
2018-10-03T11:13:18.714Z,59.98
2018-10-03T11:15:47.996Z,59.54
2018-10-03T11:18:22.905Z,60.72
2018-10-03T11:21:02.681Z,59.87
2018-10-03T11:23:32.031Z,60.32
2018-10-03T11:26:01.595Z,58.71
2018-10-03T11:28:30.894Z,57.92
2018-10-03T11:31:00.166Z,58.67
2018-10-03T11:36:27.738Z,60.09
2018-10-03T11:39:15.856Z,59.98
2018-10-03T11:41:51.207Z,60.30
2018-10-03T11:44:20.464Z,61.39
2018-10-03T11:46:49.742Z,62.07
2018-10-03T11:49:19.042Z,61.33
2018-10-03T11:54:53.787Z,64.22
2018-10-03T11:57:23.017Z,65.18
2018-10-03T11:59:54.149Z,64.58
2018-10-03T12:02:33.686Z,64.84
2018-10-03T12:05:22.422Z,64.23
2018-10-03T12:20:09.160Z,62.03
2018-10-03T12:22:40.383Z,62.19
2018-10-03T12:25:09.960Z,61.92
2018-10-03T12:27:39.402Z,59.35
2018-10-03T12:30:08.739Z,58.47
2018-10-03T12:32:38.030Z,57.14
2018-10-03T12:35:06.991Z,56.55
2018-10-03T12:37:36.273Z,57.14
2018-10-03T12:40:05.512Z,54.73
2018-10-03T12:42:34.876Z,55.53
2018-10-03T12:45:03.900Z,55.64
2018-10-03T12:47:33.454Z,55.74
2018-10-03T12:50:02.810Z,56.41
2018-10-03T12:52:32.362Z,56.82
2018-10-03T12:55:02.059Z,56.22
2018-10-03T12:57:31.346Z,57.01
2018-10-03T13:00:01.014Z,57.01
2018-10-03T13:02:30.299Z,57.62
2018-10-03T13:04:59.906Z,57.86
2018-10-03T13:07:29.474Z,56.82
2018-10-03T13:09:58.477Z,57.35
2018-10-03T13:12:27.774Z,58.83
2018-10-03T13:14:57.598Z,59.53
2018-10-03T13:17:27.117Z,58.82
2018-10-03T13:19:56.401Z,57.55
2018-10-03T13:22:25.969Z,58.82
2018-10-03T13:24:55.253Z,58.50
2018-10-03T13:27:24.823Z,58.83
2018-10-03T13:29:54.132Z,60.47
2018-10-03T13:32:23.425Z,60.86
2018-10-03T13:34:52.878Z,61.03
2018-10-03T13:37:22.114Z,61.96
2018-10-03T13:39:51.407Z,63.63
2018-10-03T13:42:20.982Z,64.61
2018-10-03T13:44:50.278Z,63.95
2018-10-03T13:47:19.291Z,64.02
2018-10-03T13:49:48.594Z,63.54
2018-10-03T13:52:18.175Z,62.46
2018-10-03T13:54:47.015Z,62.52
2018-10-03T13:57:16.301Z,62.71
2018-10-03T13:59:45.413Z,61.70
2018-10-03T14:02:15.009Z,59.32
2018-10-03T14:04:44.294Z,59.53
2018-10-03T14:07:13.838Z,60.83
2018-10-03T14:09:43.217Z,60.45
2018-10-03T14:12:12.505Z,60.82
2018-10-03T14:14:43.780Z,61.95
2018-10-03T14:17:13.098Z,62.74
2018-10-03T14:19:42.379Z,62.57
2018-10-03T14:22:11.390Z,63.41
2018-10-03T14:24:40.691Z,63.53
2018-10-03T14:27:10.046Z,62.92
2018-10-03T14:29:39.090Z,62.32
2018-10-03T14:32:08.385Z,62.66
2018-10-03T14:34:37.949Z,61.97
2018-10-03T14:37:06.915Z,61.40
2018-10-03T14:39:36.257Z,59.16
2018-10-03T14:42:05.747Z,59.77
2018-10-03T14:44:35.122Z,59.45
2018-10-03T14:47:04.587Z,60.21
2018-10-03T14:49:33.723Z,58.59
2018-10-03T14:52:03.610Z,58.68
2018-10-03T15:06:30.210Z,60.58
2018-10-03T15:08:59.522Z,60.23
2018-10-03T15:11:29.308Z,59.91
2018-10-03T15:13:58.591Z,59.73
2018-10-03T15:16:28.409Z,60.69
2018-10-03T15:18:57.705Z,60.02
2018-10-03T15:21:27.965Z,59.86
2018-10-03T15:27:00.230Z,61.45
2018-10-03T15:29:29.564Z,61.54
2018-10-03T15:31:59.138Z,62.20
2018-10-03T15:34:28.745Z,62.53
2018-10-03T15:36:58.769Z,62.52
2018-10-03T15:39:28.023Z,63.06
2018-10-03T15:41:57.539Z,63.77
2018-10-03T15:44:27.287Z,62.54
2018-10-03T15:46:56.593Z,61.67
2018-10-03T15:49:26.471Z,62.18
2018-10-03T15:51:55.769Z,63.60
2018-10-03T15:54:25.337Z,63.33
2018-10-03T15:56:54.630Z,62.32
2018-10-03T15:59:24.246Z,62.58
2018-10-03T16:01:53.564Z,63.06
2018-10-03T16:04:23.434Z,63.32
2018-10-03T16:06:52.747Z,62.49
2018-10-03T16:09:22.326Z,62.87
2018-10-03T16:15:02.325Z,62.69
2018-10-03T16:17:33.523Z,63.32
2018-10-03T16:20:06.800Z,64.15
2018-10-03T16:22:38.815Z,63.74
2018-10-03T16:25:11.576Z,63.95
2018-10-03T16:27:41.084Z,63.89
2018-10-03T16:30:10.485Z,64.47
2018-10-03T16:32:40.588Z,64.83
2018-10-03T16:35:09.984Z,65.18
2018-10-03T16:37:49.713Z,64.67
2018-10-03T16:40:23.552Z,65.29
2018-10-03T16:42:54.282Z,65.62
2018-10-03T16:45:23.617Z,64.96
2018-10-03T16:47:58.937Z,65.61
2018-10-03T16:50:34.344Z,66.32
2018-10-03T16:53:03.628Z,66.98
2018-10-03T16:55:33.466Z,67.62
2018-10-03T16:58:02.447Z,68.36
2018-10-03T17:00:31.412Z,68.55
2018-10-03T17:03:00.989Z,68.49
2018-10-03T17:05:30.401Z,68.38
2018-10-03T17:07:59.446Z,68.49
2018-10-03T17:10:29.040Z,68.37
2018-10-03T17:12:58.617Z,68.61
2018-10-03T17:15:27.977Z,69.35
2018-10-03T17:17:57.434Z,69.19
2018-10-03T17:20:26.921Z,69.73
2018-10-03T17:22:56.445Z,70.04
2018-10-03T17:25:25.780Z,70.20
2018-10-03T17:27:55.073Z,70.39
2018-10-03T17:30:24.651Z,70.45
2018-10-03T17:32:53.940Z,70.79
2018-10-03T17:35:23.713Z,71.32
2018-10-03T17:37:53.281Z,71.63
2018-10-03T17:40:22.867Z,71.46
2018-10-03T17:42:51.908Z,72.14
2018-10-03T17:45:21.492Z,71.49
2018-10-03T17:47:50.945Z,72.45
2018-10-03T17:50:20.526Z,71.18
2018-10-03T17:52:49.803Z,72.18
2018-10-03T17:55:19.676Z,72.27
2018-10-03T17:57:48.952Z,72.09
2018-10-03T18:00:17.948Z,72.30
2018-10-03T18:02:47.527Z,72.53
2018-10-03T18:05:17.076Z,72.87
2018-10-03T18:07:46.517Z,73.05
2018-10-03T18:10:15.888Z,72.45
2018-10-03T18:12:45.157Z,72.78
2018-10-03T18:15:15.685Z,73.82
2018-10-03T18:17:44.980Z,73.82
2018-10-03T18:20:15.901Z,74.04
2018-10-03T18:22:44.596Z,74.48
2018-10-03T18:25:14.068Z,74.46
2018-10-03T18:27:43.722Z,74.49
2018-10-03T18:30:13.176Z,74.96
2018-10-03T18:32:42.565Z,75.12
2018-10-03T18:35:12.504Z,75.39
2018-10-03T18:37:42.323Z,75.24
2018-10-03T18:40:11.791Z,75.63
2018-10-03T18:42:41.086Z,76.13
2018-10-03T18:45:10.327Z,76.46
2018-10-03T18:47:39.756Z,75.60
2018-10-03T18:50:08.688Z,76.11
2018-10-03T18:52:37.968Z,75.80
2018-10-03T18:55:07.252Z,75.49
2018-10-03T18:57:36.784Z,75.06
2018-10-03T19:00:05.485Z,75.12
2018-10-03T19:02:34.773Z,74.81
2018-10-03T19:05:03.713Z,74.32
2018-10-03T19:07:33.004Z,74.55
2018-10-03T19:10:02.285Z,73.96
2018-10-03T19:12:31.942Z,73.83
2018-10-03T19:15:01.629Z,74.52
2018-10-03T19:17:31.006Z,73.47
2018-10-03T19:20:00.034Z,74.08
2018-10-03T19:22:30.037Z,73.46
2018-10-03T19:24:59.312Z,73.52
2018-10-03T19:27:28.900Z,72.97
2018-10-03T19:29:58.184Z,73.51
2018-10-03T19:32:27.774Z,73.27
2018-10-03T19:34:57.045Z,73.20
2018-10-03T19:37:27.224Z,72.76
2018-10-03T19:39:56.833Z,73.09
2018-10-03T19:42:25.799Z,73.47
2018-10-03T19:44:55.068Z,73.51
2018-10-03T19:47:30.287Z,73.89
2018-10-03T19:50:05.503Z,74.07
2018-10-03T19:52:34.984Z,74.07
2018-10-03T19:55:04.270Z,73.98
2018-10-03T19:57:33.279Z,74.71
2018-10-03T20:00:02.842Z,74.62
2018-10-03T20:02:32.472Z,74.57
2018-10-03T20:05:01.922Z,74.80
2018-10-03T20:07:31.959Z,74.42
2018-10-03T20:10:00.916Z,74.58
2018-10-03T20:12:30.232Z,74.96
2018-10-03T20:14:59.804Z,74.80
2018-10-03T20:17:31.568Z,74.68
2018-10-03T20:20:01.145Z,75.43
2018-10-03T20:22:30.424Z,75.72
2018-10-03T20:25:00.041Z,75.82
2018-10-03T20:27:29.422Z,75.91
2018-10-03T20:29:58.909Z,75.72
2018-10-03T20:32:30.113Z,75.94
2018-10-03T20:35:02.693Z,76.12
2018-10-03T20:37:34.231Z,76.08
2018-10-03T20:40:03.455Z,76.51
2018-10-03T20:42:33.022Z,76.73
2018-10-03T20:45:02.300Z,76.77
2018-10-03T20:47:31.871Z,76.70
2018-10-03T20:50:01.158Z,76.62
2018-10-03T20:52:30.428Z,77.20
2018-10-03T20:55:00.063Z,77.10
2018-10-03T20:57:29.354Z,77.07
2018-10-03T20:59:58.934Z,76.42
2018-10-03T21:02:28.317Z,77.20
2018-10-03T21:04:57.613Z,77.46
2018-10-03T21:07:27.176Z,77.10
2018-10-03T21:09:56.469Z,77.35
2018-10-03T21:12:26.081Z,77.65
2018-10-03T21:14:55.138Z,77.83
2018-10-03T21:17:24.412Z,78.40
2018-10-03T21:19:54.009Z,78.19
2018-10-03T21:22:23.564Z,78.76
2018-10-03T21:24:53.136Z,78.23
2018-10-03T21:27:22.258Z,78.51
2018-10-03T21:29:51.548Z,78.10
2018-10-03T21:32:21.168Z,77.97
2018-10-03T21:34:50.629Z,78.30
2018-10-03T21:37:20.212Z,78.44
2018-10-03T21:39:49.233Z,78.78
2018-10-03T21:42:18.509Z,78.96
2018-10-03T21:44:47.915Z,79.27
2018-10-03T21:47:17.685Z,79.21
2018-10-03T21:49:47.132Z,79.39
2018-10-03T21:52:16.562Z,79.63
2018-10-03T21:54:46.173Z,79.59
2018-10-03T21:57:16.496Z,79.43
2018-10-03T21:59:46.073Z,80.00
2018-10-03T22:02:16.401Z,80.00
2018-10-03T22:04:45.689Z,80.38
2018-10-03T22:07:16.404Z,80.09
2018-10-03T22:09:45.688Z,80.15
2018-10-03T22:12:16.164Z,80.52
2018-10-03T22:14:45.482Z,80.40
2018-10-03T22:17:15.899Z,80.81
2018-10-03T22:19:45.136Z,80.64
2018-10-03T22:22:14.421Z,80.69
2018-10-03T22:24:43.360Z,80.79
2018-10-03T22:27:12.670Z,80.74
2018-10-03T22:29:41.890Z,80.75
2018-10-03T22:32:23.100Z,81.04
2018-10-03T22:35:04.210Z,81.50
2018-10-03T22:37:46.165Z,80.90
2018-10-03T22:40:28.268Z,81.15
2018-10-03T22:43:10.230Z,81.37
2018-10-03T22:45:51.335Z,81.03
2018-10-03T22:48:32.600Z,81.07
2018-10-03T22:51:14.040Z,80.61
2018-10-03T22:53:55.205Z,80.51
2018-10-03T22:56:36.543Z,80.25
2018-10-03T22:59:17.833Z,80.87
2018-10-03T23:01:48.216Z,80.91
2018-10-03T23:04:17.700Z,80.45
2018-10-03T23:06:46.701Z,80.23
2018-10-03T23:09:16.673Z,80.07
2018-10-03T23:11:46.235Z,80.16
2018-10-03T23:14:16.629Z,80.49
2018-10-03T23:16:46.213Z,80.58
2018-10-03T23:19:16.583Z,80.62
2018-10-03T23:21:45.860Z,80.48
2018-10-03T23:24:16.448Z,80.71
2018-10-03T23:26:45.732Z,80.86
2018-10-03T23:29:16.649Z,80.68
2018-10-03T23:31:46.335Z,81.00
2018-10-03T23:34:16.600Z,81.40
2018-10-03T23:36:45.892Z,81.39
2018-10-03T23:39:16.487Z,81.72
2018-10-03T23:41:45.782Z,81.83
2018-10-03T23:44:16.675Z,81.90
2018-10-03T23:46:46.256Z,82.09
2018-10-03T23:49:16.651Z,82.32
2018-10-03T23:51:45.936Z,82.11
2018-10-03T23:54:16.412Z,82.60
2018-10-03T23:56:45.699Z,82.65
2018-10-03T23:59:16.319Z,82.91
